Time;durP1;ratioP1;P1;durP2;ratioP2;P2;SDS_P1;SDS_P2;PMS_P1;PMS_P2;Temp;Humidity;BMP_temperature;BMP_pressure;BME280_temperature;BME280_humidity;BME280_pressure;Samples;Min_cycle;Max_cycle;Signal;HPM_P1;HPM_P2
2023/02/17 00:00:12;;;;;;;21.60;13.50;;;5.00;93.40;;;;;;6306972;28;20472;-64
2023/02/17 00:03:15;;;;;;;18.83;11.43;;;5.00;93.40;;;;;;6303592;28;20469;-64
2023/02/17 00:06:22;;;;;;;14.87;12.40;;;5.00;93.70;;;;;;6301420;28;20553;-64
2023/02/17 00:09:25;;;;;;;16.50;12.40;;;5.00;93.90;;;;;;6300008;28;20476;-64
2023/02/17 00:12:29;;;;;;;17.93;12.97;;;5.00;93.90;;;;;;6303966;28;20842;-64
2023/02/17 00:15:32;;;;;;;17.80;12.97;;;5.00;94.00;;;;;;6303434;28;20479;-65
2023/02/17 00:18:35;;;;;;;15.57;12.13;;;4.90;94.00;;;;;;6303650;28;20480;-65
2023/02/17 00:21:40;;;;;;;17.30;12.10;;;5.00;94.30;;;;;;6303423;28;20487;-64
2023/02/17 00:24:43;;;;;;;15.77;11.80;;;5.00;94.30;;;;;;6303458;28;20477;-64
2023/02/17 00:27:46;;;;;;;15.07;12.70;;;5.00;94.20;;;;;;6286268;28;20478;-65
2023/02/17 00:30:49;;;;;;;22.10;12.33;;;5.10;94.20;;;;;;6278655;28;20478;-64
2023/02/17 00:33:55;;;;;;;16.23;11.50;;;5.10;94.00;;;;;;6278451;28;20801;-64
2023/02/17 00:36:59;;;;;;;16.37;12.23;;;5.20;94.30;;;;;;6278154;28;20466;-65
2023/02/17 00:40:03;;;;;;;13.30;11.40;;;5.20;94.00;;;;;;6278149;28;20597;-65
2023/02/17 00:43:06;;;;;;;16.40;12.63;;;5.20;93.90;;;;;;6278035;28;20476;-65
2023/02/17 00:46:09;;;;;;;12.73;11.33;;;5.20;93.90;;;;;;6277947;28;20470;-64
2023/02/17 00:49:16;;;;;;;18.93;13.10;;;5.20;93.90;;;;;;6277869;28;20478;-64
2023/02/17 00:52:21;;;;;;;19.43;12.90;;;5.20;93.90;;;;;;6277989;28;20470;-64
2023/02/17 00:55:25;;;;;;;16.70;13.07;;;5.10;94.10;;;;;;6277780;28;20786;-64
2023/02/17 00:58:28;;;;;;;17.87;12.30;;;5.10;94.20;;;;;;6277802;28;20470;-64
2023/02/17 01:01:32;;;;;;;15.37;12.43;;;5.10;94.30;;;;;;6278135;28;20493;-64
2023/02/17 01:04:36;;;;;;;13.30;10.43;;;5.10;94.40;;;;;;6291064;28;20485;-64
2023/02/17 01:07:40;;;;;;;14.80;10.53;;;5.20;94.40;;;;;;6278526;28;20487;-64
2023/02/17 01:10:45;;;;;;;16.53;10.83;;;5.20;94.40;;;;;;6276918;28;20478;-64
2023/02/17 01:13:48;;;;;;;15.03;10.77;;;5.10;94.40;;;;;;6277725;28;20489;-65
2023/02/17 01:16:52;;;;;;;15.80;10.40;;;5.10;94.50;;;;;;6277628;28;20926;-65
2023/02/17 01:19:55;;;;;;;14.70;11.03;;;5.20;94.80;;;;;;6276586;28;20973;-65
2023/02/17 01:22:59;;;;;;;15.43;11.67;;;5.30;94.80;;;;;;6276727;28;20489;-65
2023/02/17 01:26:03;;;;;;;17.03;13.10;;;5.30;94.60;;;;;;6277438;28;20470;-65
2023/02/17 01:29:09;;;;;;;14.47;9.80;;;5.30;94.60;;;;;;6277310;28;20492;-65
2023/02/17 01:32:12;;;;;;;12.93;11.07;;;5.30;94.70;;;;;;6277349;28;20719;-65
2023/02/17 01:35:16;;;;;;;11.90;10.80;;;5.30;94.70;;;;;;6268869;28;20438;-65
2023/02/17 01:38:20;;;;;;;12.57;10.17;;;5.30;94.60;;;;;;6276744;28;20470;-65
2023/02/17 01:41:26;;;;;;;18.57;11.77;;;5.40;94.60;;;;;;6276783;28;20459;-65
2023/02/17 01:44:32;;;;;;;14.47;10.60;;;5.30;94.50;;;;;;6276783;28;20493;-65
2023/02/17 01:47:35;;;;;;;11.70;10.00;;;5.40;94.60;;;;;;6297269;28;20461;-65
2023/02/17 01:50:42;;;;;;;17.83;11.57;;;5.30;94.60;;;;;;6299573;28;21015;-64
2023/02/17 01:53:52;;;;;;;13.50;10.17;;;5.30;94.60;;;;;;6298964;28;20515;-65
2023/02/17 01:56:58;;;;;;;16.10;10.40;;;5.40;94.60;;;;;;6295909;28;20793;-65
2023/02/17 02:00:02;;;;;;;13.10;9.97;;;5.30;94.60;;;;;;6288514;28;20478;-65
2023/02/17 02:03:08;;;;;;;15.53;9.47;;;5.30;94.80;;;;;;6297558;28;20473;-65
2023/02/17 02:06:18;;;;;;;15.27;10.60;;;5.40;94.80;;;;;;6300269;28;20469;-65
2023/02/17 02:09:29;;;;;;;12.40;10.50;;;5.40;94.80;;;;;;6301158;28;20485;-65
2023/02/17 02:12:34;;;;;;;11.57;9.73;;;5.40;94.90;;;;;;6300315;28;20469;-64
2023/02/17 02:15:44;;;;;;;15.13;9.83;;;5.40;95.10;;;;;;6300013;28;20476;-64
2023/02/17 02:18:57;;;;;;;11.50;9.60;;;5.40;95.10;;;;;;6299966;28;20961;-64
2023/02/17 02:22:33;;;;;;;14.07;10.10;;;5.50;95.20;;;;;;6301107;28;20462;-65
2023/02/17 02:26:24;;;;;;;12.73;9.17;;;5.50;95.10;;;;;;6281672;28;20477;-64
2023/02/17 02:30:09;;;;;;;15.17;8.90;;;5.50;95.00;;;;;;6250605;28;20554;-65
2023/02/17 02:33:24;;;;;;;15.47;10.80;;;5.50;95.10;;;;;;6145260;28;20483;-65
2023/02/17 02:36:31;;;;;;;13.20;10.90;;;5.50;94.90;;;;;;6246149;28;20494;-65
2023/02/17 02:39:37;;;;;;;15.63;10.30;;;5.40;95.00;;;;;;6245925;28;20777;-65
2023/02/17 02:42:41;;;;;;;17.90;12.73;;;5.40;95.10;;;;;;6250273;28;20486;-65
2023/02/17 02:45:44;;;;;;;20.60;13.93;;;5.30;95.30;;;;;;6298731;28;20492;-65
2023/02/17 02:48:51;;;;;;;17.20;14.00;;;5.20;95.50;;;;;;6299500;28;20545;-65
2023/02/17 02:52:02;;;;;;;20.03;14.20;;;5.10;95.40;;;;;;6299151;28;20488;-64
2023/02/17 02:55:13;;;;;;;17.13;12.67;;;5.10;95.60;;;;;;6297510;28;20486;-64
2023/02/17 02:58:21;;;;;;;15.90;12.77;;;5.10;95.80;;;;;;6297765;28;20480;-64
2023/02/17 03:01:34;;;;;;;13.10;10.70;;;5.10;96.00;;;;;;6298181;28;20569;-64
2023/02/17 03:04:46;;;;;;;11.07;9.17;;;5.10;96.10;;;;;;6298559;28;20476;-65
2023/02/17 03:07:54;;;;;;;11.47;9.47;;;5.10;96.20;;;;;;6298411;28;20461;-64
2023/02/17 03:10:57;;;;;;;17.47;10.30;;;5.20;96.30;;;;;;6297698;28;20481;-65
2023/02/17 03:14:02;;;;;;;13.97;10.63;;;5.10;96.40;;;;;;6290921;28;20816;-65
2023/02/17 03:17:06;;;;;;;9.63;8.17;;;5.10;96.50;;;;;;6299664;28;20457;-65
2023/02/17 03:20:12;;;;;;;14.13;9.47;;;5.10;96.70;;;;;;6299582;28;20457;-64
2023/02/17 03:23:15;;;;;;;11.03;9.30;;;5.20;96.70;;;;;;6299670;28;20428;-64
2023/02/17 03:26:18;;;;;;;9.20;7.70;;;5.20;96.60;;;;;;6294716;28;20497;-65
2023/02/17 03:29:22;;;;;;;11.60;9.30;;;5.20;96.70;;;;;;6274444;28;20466;-65
2023/02/17 03:32:25;;;;;;;12.00;10.30;;;5.20;96.60;;;;;;6274659;28;20461;-65
2023/02/17 03:35:30;;;;;;;13.43;10.33;;;5.30;96.60;;;;;;6273608;28;20462;-65
2023/02/17 03:38:33;;;;;;;12.23;9.83;;;5.30;96.80;;;;;;6273973;28;20553;-65
2023/02/17 03:41:36;;;;;;;12.60;9.40;;;5.40;96.50;;;;;;6273943;28;20568;-65
2023/02/17 03:44:39;;;;;;;10.87;8.50;;;5.40;96.40;;;;;;6260352;28;20478;-65
2023/02/17 03:47:42;;;;;;;10.73;9.00;;;5.40;96.50;;;;;;6274083;28;20470;-65
2023/02/17 03:50:47;;;;;;;12.30;9.27;;;5.30;96.60;;;;;;6273394;28;20481;-65
2023/02/17 03:53:51;;;;;;;16.03;9.33;;;5.30;96.60;;;;;;6272754;28;20605;-65
2023/02/17 03:56:54;;;;;;;9.77;8.70;;;5.40;96.70;;;;;;6272922;28;20482;-66
2023/02/17 03:59:58;;;;;;;10.50;9.40;;;5.30;96.70;;;;;;6273386;28;20974;-64
2023/02/17 04:03:01;;;;;;;15.80;10.20;;;5.40;96.80;;;;;;6265925;28;20517;-65
2023/02/17 04:06:06;;;;;;;10.97;8.20;;;5.40;96.70;;;;;;6273579;28;20474;-65
2023/02/17 04:09:10;;;;;;;12.60;9.37;;;5.50;96.80;;;;;;6273611;28;20970;-65
2023/02/17 04:12:13;;;;;;;12.90;9.30;;;5.50;96.70;;;;;;6273541;28;20466;-65
2023/02/17 04:15:16;;;;;;;9.50;8.50;;;5.50;96.50;;;;;;6273904;28;20474;-65
2023/02/17 04:18:20;;;;;;;9.37;7.70;;;5.40;96.50;;;;;;6273732;28;20477;-65
2023/02/17 04:21:24;;;;;;;11.83;8.93;;;5.40;96.50;;;;;;6273701;28;20476;-64
2023/02/17 04:24:27;;;;;;;10.13;8.37;;;5.40;96.60;;;;;;6273365;28;20478;-64
2023/02/17 04:27:31;;;;;;;9.83;8.03;;;5.40;96.80;;;;;;6273861;28;20470;-64
2023/02/17 04:30:34;;;;;;;9.33;7.77;;;5.40;96.80;;;;;;6273826;28;20745;-64
2023/02/17 04:33:38;;;;;;;9.40;7.97;;;5.40;96.70;;;;;;6274510;28;20555;-64
2023/02/17 04:36:42;;;;;;;9.23;7.93;;;5.40;96.80;;;;;;6273668;28;20962;-64
2023/02/17 04:39:46;;;;;;;9.50;6.90;;;5.40;96.70;;;;;;6273474;28;20474;-64
2023/02/17 04:42:49;;;;;;;10.43;8.33;;;5.40;96.80;;;;;;6273371;28;20482;-65
2023/02/17 04:45:53;;;;;;;9.77;8.80;;;5.50;96.80;;;;;;6276513;28;20485;-64
2023/02/17 04:48:56;;;;;;;13.50;8.93;;;5.50;96.70;;;;;;6277608;28;20991;-64
2023/02/17 04:52:01;;;;;;;9.17;7.83;;;5.60;96.70;;;;;;6269783;28;20810;-65
2023/02/17 04:55:05;;;;;;;8.90;8.00;;;5.50;96.70;;;;;;6277689;28;20477;-65
2023/02/17 04:58:08;;;;;;;8.43;7.63;;;5.50;96.70;;;;;;6278212;28;20477;-65
2023/02/17 05:01:12;;;;;;;10.93;7.93;;;5.40;96.80;;;;;;6277926;28;20466;-65
2023/02/17 05:04:15;;;;;;;10.20;7.77;;;5.50;96.90;;;;;;6277339;28;20476;-64
2023/02/17 05:07:20;;;;;;;10.00;8.27;;;5.50;96.80;;;;;;6277281;28;20945;-64
2023/02/17 05:10:23;;;;;;;14.53;9.20;;;5.50;96.80;;;;;;6277160;28;20482;-65
2023/02/17 05:13:26;;;;;;;11.23;9.73;;;5.50;96.80;;;;;;6277669;28;20807;-64
2023/02/17 05:16:29;;;;;;;19.50;13.37;;;5.50;96.70;;;;;;6284156;28;20817;-65
2023/02/17 05:19:33;;;;;;;23.50;16.10;;;5.50;96.70;;;;;;6301601;28;20481;-66
2023/02/17 05:22:38;;;;;;;19.63;15.13;;;5.30;96.70;;;;;;6291231;28;20487;-66
2023/02/17 05:25:41;;;;;;;27.33;16.13;;;5.20;96.80;;;;;;6300116;28;20461;-65
2023/02/17 05:28:45;;;;;;;22.10;14.37;;;5.10;96.90;;;;;;6296791;28;20544;-65
2023/02/17 05:31:48;;;;;;;22.60;14.97;;;5.10;97.10;;;;;;6301350;28;20469;-65
2023/02/17 05:34:51;;;;;;;17.27;14.47;;;5.10;97.10;;;;;;6299979;28;20477;-65
2023/02/17 05:37:56;;;;;;;20.23;15.00;;;5.00;97.10;;;;;;6299864;28;20469;-65
2023/02/17 05:40:59;;;;;;;16.33;13.70;;;4.90;97.30;;;;;;6301914;28;20469;-65
2023/02/17 05:44:02;;;;;;;21.47;15.13;;;4.90;97.40;;;;;;6301284;28;20465;-65
2023/02/17 05:47:06;;;;;;;21.00;16.33;;;4.90;97.50;;;;;;6301540;28;20492;-65
2023/02/17 05:50:09;;;;;;;20.83;14.00;;;4.90;97.70;;;;;;6291945;28;20495;-65
2023/02/17 05:53:14;;;;;;;21.10;15.77;;;4.80;97.70;;;;;;6301163;28;20456;-65
2023/02/17 05:56:17;;;;;;;20.00;15.77;;;4.70;97.90;;;;;;6300505;28;20446;-65
2023/02/17 05:59:20;;;;;;;22.20;16.47;;;4.70;98.10;;;;;;6301084;28;20457;-65
2023/02/17 06:02:23;;;;;;;21.83;15.47;;;4.70;98.20;;;;;;6281371;28;20482;-65
2023/02/17 06:05:27;;;;;;;21.70;14.70;;;4.60;98.30;;;;;;6276293;28;20477;-65
2023/02/17 06:08:31;;;;;;;18.60;14.13;;;4.60;98.50;;;;;;6275880;28;20579;-65
2023/02/17 06:11:34;;;;;;;18.13;13.90;;;4.60;98.60;;;;;;6275995;28;20466;-66
2023/02/17 06:14:38;;;;;;;19.07;14.30;;;4.60;98.70;;;;;;6276388;28;20485;-65
2023/02/17 06:17:41;;;;;;;19.30;14.30;;;4.60;98.70;;;;;;6276303;28;20473;-65
2023/02/17 06:20:44;;;;;;;17.70;12.53;;;4.60;98.80;;;;;;6275694;28;20466;-64
2023/02/17 06:23:49;;;;;;;17.67;14.30;;;4.60;98.80;;;;;;6275893;28;20474;-65
2023/02/17 06:26:52;;;;;;;18.77;13.20;;;4.60;99.00;;;;;;6275749;28;20489;-64
2023/02/17 06:29:55;;;;;;;21.50;13.07;;;4.60;99.10;;;;;;6275468;28;20589;-65
2023/02/17 06:32:59;;;;;;;13.37;11.03;;;4.70;99.10;;;;;;6275623;28;20970;-64
2023/02/17 06:36:02;;;;;;;21.77;12.70;;;4.70;99.10;;;;;;6275369;28;20820;-64
2023/02/17 06:39:07;;;;;;;17.73;12.13;;;4.80;99.10;;;;;;6275823;28;20469;-64
2023/02/17 06:42:10;;;;;;;17.13;12.20;;;4.80;99.10;;;;;;6275689;28;20481;-64
2023/02/17 06:45:14;;;;;;;17.70;13.20;;;4.90;99.00;;;;;;6276351;28;20473;-64
2023/02/17 06:48:17;;;;;;;16.00;12.30;;;4.90;99.00;;;;;;6276312;28;20485;-64
2023/02/17 06:51:20;;;;;;;15.90;10.93;;;5.00;99.20;;;;;;6276303;28;20470;-64
2023/02/17 06:54:24;;;;;;;26.60;15.13;;;5.00;99.20;;;;;;6269968;28;20839;-64
2023/02/17 06:57:28;;;;;;;20.80;14.70;;;5.10;99.00;;;;;;6274920;28;20478;-64
2023/02/17 07:00:31;;;;;;;22.00;13.87;;;5.20;99.00;;;;;;6274829;28;20492;-64
2023/02/17 07:03:34;;;;;;;17.53;13.63;;;5.30;98.80;;;;;;6276522;28;20500;-64
2023/02/17 07:06:37;;;;;;;19.63;15.93;;;5.30;98.50;;;;;;6277460;28;20481;-64
2023/02/17 07:09:42;;;;;;;18.97;16.00;;;5.40;98.30;;;;;;6274599;28;20481;-64
2023/02/17 07:12:45;;;;;;;17.70;13.17;;;5.40;98.10;;;;;;6274623;28;20470;-65
2023/02/17 07:15:48;;;;;;;21.10;14.63;;;5.40;98.20;;;;;;6274729;28;20477;-64
2023/02/17 07:18:52;;;;;;;19.47;14.63;;;5.40;98.00;;;;;;6274911;28;20484;-65
2023/02/17 07:21:55;;;;;;;26.33;14.80;;;5.40;98.10;;;;;;6274639;28;20962;-65
2023/02/17 07:25:00;;;;;;;20.10;15.23;;;5.50;98.00;;;;;;6266226;28;20478;-65
2023/02/17 07:28:03;;;;;;;20.67;15.93;;;5.60;97.90;;;;;;6274163;28;20794;-65
2023/02/17 07:31:07;;;;;;;27.30;16.10;;;5.70;97.90;;;;;;6274839;28;20918;-65
2023/02/17 07:34:10;;;;;;;17.90;15.73;;;5.80;97.60;;;;;;6274379;28;20492;-65
2023/02/17 07:37:13;;;;;;;21.00;14.33;;;5.80;97.40;;;;;;6274519;28;20477;-65
2023/02/17 07:40:18;;;;;;;22.20;15.20;;;6.00;97.50;;;;;;6274448;28;20478;-65
2023/02/17 07:43:21;;;;;;;18.37;14.23;;;6.20;97.20;;;;;;6274912;28;20482;-65
2023/02/17 07:46:25;;;;;;;21.00;14.67;;;6.30;96.30;;;;;;6283237;28;20484;-65
2023/02/17 07:49:28;;;;;;;15.97;12.43;;;6.40;96.10;;;;;;6297957;28;21337;-65
2023/02/17 07:52:31;;;;;;;19.17;14.87;;;6.50;96.00;;;;;;6299386;28;21006;-66
2023/02/17 07:55:36;;;;;;;17.07;13.60;;;6.70;95.90;;;;;;6307069;28;20952;-67
2023/02/17 07:58:42;;;;;;;26.63;13.50;;;6.80;95.70;;;;;;6298441;28;20542;-67
2023/02/17 08:01:45;;;;;;;21.67;14.53;;;7.10;95.40;;;;;;6294723;28;20478;-66
2023/02/17 08:04:48;;;;;;;21.50;14.97;;;7.30;94.70;;;;;;6291987;28;20462;-66
2023/02/17 08:13:17;;;;;;;25.70;14.47;;;7.50;94.20;;;;;;6296924;28;20491;-66
2023/02/17 08:14:38;;;;;;;20.80;15.63;;;7.60;94.10;;;;;;6294553;28;20961;-67
2023/02/17 08:17:41;;;;;;;18.30;14.70;;;7.70;93.50;;;;;;6290154;28;20607;-66
2023/02/17 08:20:45;;;;;;;22.53;16.83;;;7.80;93.10;;;;;;6300160;28;20773;-66
2023/02/17 08:23:48;;;;;;;19.63;15.93;;;7.80;92.60;;;;;;6303119;28;20468;-66
2023/02/17 08:26:54;;;;;;;24.63;15.83;;;7.90;92.70;;;;;;6294293;28;20486;-65
2023/02/17 08:29:57;;;;;;;27.77;17.50;;;7.80;92.70;;;;;;6302059;28;20480;-64
2023/02/17 08:33:01;;;;;;;22.73;15.03;;;7.90;92.50;;;;;;6296565;28;20484;-64
2023/02/17 08:36:06;;;;;;;20.97;15.77;;;8.00;92.20;;;;;;6301797;28;20957;-64
2023/02/17 08:39:13;;;;;;;27.57;15.70;;;8.10;91.90;;;;;;6301852;28;20472;-65
2023/02/17 08:42:18;;;;;;;24.40;15.03;;;8.10;91.60;;;;;;6301956;28;20489;-65
2023/02/17 08:45:22;;;;;;;17.90;15.17;;;8.30;91.60;;;;;;6301827;28;20479;-64
2023/02/17 08:48:26;;;;;;;17.20;14.77;;;8.50;91.40;;;;;;6302465;28;20816;-65
2023/02/17 08:51:29;;;;;;;28.53;15.30;;;8.70;91.10;;;;;;6302387;28;20465;-65
2023/02/17 08:54:33;;;;;;;19.03;15.63;;;8.90;90.20;;;;;;6302850;28;20595;-65
2023/02/17 08:57:38;;;;;;;26.30;15.97;;;9.20;90.10;;;;;;6302473;28;20540;-64
2023/02/17 09:00:41;;;;;;;22.47;16.33;;;9.40;88.80;;;;;;6293512;28;20542;-65
2023/02/17 09:03:45;;;;;;;15.50;13.27;;;10.00;87.80;;;;;;6301693;28;20823;-65
2023/02/17 09:06:50;;;;;;;18.83;13.43;;;13.20;84.30;;;;;;6305621;28;20777;-65
2023/02/17 09:09:54;;;;;;;18.43;13.93;;;18.00;64.20;;;;;;6304223;28;20827;-65
2023/02/17 09:12:58;;;;;;;25.00;16.50;;;22.40;44.30;;;;;;6302264;28;20215;-65
2023/02/17 09:16:02;;;;;;;19.33;15.40;;;26.20;35.50;;;;;;6302390;28;20560;-66
2023/02/17 09:19:05;;;;;;;22.60;15.73;;;28.50;27.90;;;;;;6302059;28;20214;-65
2023/02/17 09:22:08;;;;;;;21.50;13.80;;;29.70;25.80;;;;;;6302175;28;20294;-66
2023/02/17 09:25:19;;;;;;;18.40;13.60;;;30.40;23.20;;;;;;6301813;28;20226;-66
2023/02/17 09:28:24;;;;;;;20.10;14.55;;;30.50;22.40;;;;;;6299580;28;20565;-66
2023/02/17 09:31:29;;;;;;;19.92;13.77;;;31.70;21.40;;;;;;6300877;28;20227;-66
2023/02/17 09:34:35;;;;;;;19.52;13.25;;;32.80;20.10;;;;;;6304580;28;20222;-66
2023/02/17 09:37:39;;;;;;;13.93;10.93;;;34.60;18.80;;;;;;6309808;28;20240;-66
2023/02/17 09:40:47;;;;;;;17.15;11.73;;;34.80;17.10;;;;;;6303718;28;20241;-66
2023/02/17 09:43:52;;;;;;;15.20;13.10;;;32.50;18.00;;;;;;6302399;28;20227;-65
2023/02/17 09:47:01;;;;;;;19.53;12.60;;;30.10;19.50;;;;;;6301795;28;20542;-66
2023/02/17 09:50:08;;;;;;;17.40;14.27;;;28.00;21.00;;;;;;6301234;28;20236;-66
2023/02/17 09:53:18;;;;;;;28.70;15.73;;;26.40;22.30;;;;;;6301651;28;20206;-66
2023/02/17 09:56:28;;;;;;;16.77;13.43;;;25.40;23.60;;;;;;6301433;28;20631;-66
2023/02/17 09:59:39;;;;;;;16.57;14.63;;;24.90;24.20;;;;;;6301781;28;20226;-65
2023/02/17 10:02:51;;;;;;;16.53;14.83;;;26.40;23.50;;;;;;6288202;28;20227;-65
2023/02/17 10:06:02;;;;;;;16.43;14.87;;;29.00;21.90;;;;;;6267294;28;20290;-66
2023/02/17 10:09:11;;;;;;;20.08;16.45;;;32.30;19.70;;;;;;6275945;28;20242;-66
2023/02/17 10:12:20;;;;;;;17.17;15.18;;;35.20;17.70;;;;;;6275975;28;20693;-65
2023/02/17 10:15:27;;;;;;;16.48;14.57;;;37.90;15.70;;;;;;6277007;28;20230;-66
2023/02/17 10:18:35;;;;;;;15.57;13.98;;;38.40;14.50;;;;;;6276495;28;20223;-66
2023/02/17 10:21:44;;;;;;;17.58;15.77;;;36.60;14.80;;;;;;6276192;28;20236;-65
2023/02/17 10:24:47;;;;;;;15.70;14.00;;;35.30;15.60;;;;;;6275980;28;20640;-65
2023/02/17 10:27:55;;;;;;;18.65;14.35;;;35.00;15.60;;;;;;6276214;28;20238;-65
2023/02/17 10:31:04;;;;;;;15.88;13.35;;;36.10;15.70;;;;;;6279961;28;20243;-66
2023/02/17 10:34:20;;;;;;;15.45;12.65;;;38.60;14.20;;;;;;6300233;28;20220;-65
2023/02/17 10:37:32;;;;;;;14.23;11.07;;;40.10;13.00;;;;;;6292547;28;20229;-66
2023/02/17 10:40:35;;;;;;;10.23;8.98;;;42.40;11.90;;;;;;6294581;28;20227;-66
2023/02/17 10:43:39;;;;;;;7.38;6.70;;;42.80;10.40;;;;;;6300018;28;20673;-66
2023/02/17 10:46:47;;;;;;;9.40;8.55;;;38.80;10.60;;;;;;6299942;28;20533;-68
2023/02/17 10:49:53;;;;;;;9.00;8.13;;;35.60;12.30;;;;;;6299825;28;20263;-67
2023/02/17 10:52:56;;;;;;;11.75;8.57;;;31.60;15.00;;;;;;6289336;28;20555;-67
2023/02/17 10:56:06;;;;;;;8.97;8.17;;;28.50;17.20;;;;;;6286771;28;20547;-68
2023/02/17 10:59:20;;;;;;;12.30;7.00;;;26.50;18.70;;;;;;6300857;28;20617;-67
2023/02/17 11:02:34;;;;;;;7.77;6.43;;;24.40;19.70;;;;;;6297007;28;20203;-65
2023/02/17 11:05:37;;;;;;;10.80;6.83;;;22.60;21.00;;;;;;6288155;28;20226;-65
2023/02/17 11:08:46;;;;;;;6.43;4.80;;;21.90;21.90;;;;;;6298872;28;20234;-65
2023/02/17 11:11:55;;;;;;;5.93;5.40;;;21.40;22.30;;;;;;6293563;28;20292;-65
2023/02/17 11:14:58;;;;;;;6.10;5.30;;;20.70;23.40;;;;;;6299506;28;20219;-64
2023/02/17 11:18:11;;;;;;;8.17;5.20;;;20.20;24.50;;;;;;6299088;28;20214;-65
2023/02/17 11:21:14;;;;;;;9.17;6.40;;;19.80;25.40;;;;;;6294245;28;20230;-64
2023/02/17 11:24:18;;;;;;;5.77;4.57;;;19.60;26.00;;;;;;6320753;28;20226;-65
2023/02/17 11:27:25;;;;;;;7.00;4.57;;;19.40;27.00;;;;;;6304553;28;20227;-65
2023/02/17 11:30:30;;;;;;;4.97;4.47;;;18.90;26.80;;;;;;6291425;28;20230;-65
2023/02/17 11:33:37;;;;;;;6.63;4.87;;;18.90;27.00;;;;;;6261541;28;20657;-64
2023/02/17 11:36:43;;;;;;;8.47;4.70;;;19.00;27.10;;;;;;6272278;28;20647;-64
2023/02/17 11:39:48;;;;;;;4.83;4.43;;;19.70;26.50;;;;;;6287074;28;20227;-64
2023/02/17 11:42:57;;;;;;;6.10;5.50;;;21.20;25.60;;;;;;6298962;28;20222;-65
2023/02/17 11:46:24;;;;;;;6.90;5.90;;;22.50;24.20;;;;;;6290338;28;20223;-65
2023/02/17 11:50:04;;;;;;;5.23;4.73;;;23.30;23.50;;;;;;6297686;28;20315;-65
2023/02/17 11:53:20;;;;;;;6.70;5.10;;;22.80;23.30;;;;;;6298157;28;20229;-65
2023/02/17 11:56:29;;;;;;;6.33;4.67;;;22.80;23.50;;;;;;6272746;28;20249;-65
2023/02/17 11:59:42;;;;;;;8.03;4.83;;;23.30;23.50;;;;;;6267803;28;20537;-65
2023/02/17 12:03:00;;;;;;;5.70;4.57;;;23.40;23.20;;;;;;6269972;28;20235;-65
2023/02/17 12:06:13;;;;;;;6.10;5.30;;;23.00;22.50;;;;;;6280444;28;20598;-65
2023/02/17 12:09:24;;;;;;;6.43;5.40;;;22.80;23.20;;;;;;6275328;28;20577;-65
2023/02/17 12:12:38;;;;;;;6.17;4.70;;;21.80;23.80;;;;;;6272849;28;20247;-64
2023/02/17 12:15:55;;;;;;;11.17;5.30;;;21.20;24.70;;;;;;6268301;28;20226;-64
2023/02/17 12:19:04;;;;;;;10.13;9.23;;;20.50;24.90;;;;;;6263106;28;20223;-64
2023/02/17 12:22:18;;;;;;;14.87;7.37;;;19.90;26.20;;;;;;6305672;28;20686;-65
2023/02/17 12:25:25;;;;;;;11.93;5.90;;;19.50;26.40;;;;;;6298605;28;20227;-65
2023/02/17 12:28:49;;;;;;;7.80;5.50;;;19.40;26.80;;;;;;6303684;28;20222;-65
2023/02/17 12:32:06;;;;;;;7.87;5.13;;;19.40;27.00;;;;;;6257432;28;20236;-65
2023/02/17 12:35:16;;;;;;;10.30;5.77;;;19.40;27.00;;;;;;6294340;28;20509;-65
2023/02/17 12:38:26;;;;;;;9.43;5.27;;;19.60;27.00;;;;;;6306899;28;20226;-65
2023/02/17 12:41:34;;;;;;;6.10;5.40;;;19.90;26.80;;;;;;6306346;28;20230;-66
2023/02/17 12:44:42;;;;;;;8.27;6.13;;;20.00;26.70;;;;;;6301364;28;20250;-65
2023/02/17 12:47:54;;;;;;;7.60;5.90;;;20.10;26.60;;;;;;6305728;28;20222;-65
2023/02/17 12:51:05;;;;;;;5.70;5.20;;;20.10;26.60;;;;;;6302096;28;20219;-65
2023/02/17 12:54:17;;;;;;;12.00;5.67;;;20.20;26.80;;;;;;6298944;28;20226;-66
2023/02/17 12:57:24;;;;;;;8.10;5.93;;;20.40;26.80;;;;;;6306959;28;20245;-65
2023/02/17 13:00:34;;;;;;;7.00;6.17;;;20.30;26.70;;;;;;6288484;28;20246;-65
2023/02/17 13:03:37;;;;;;;6.80;5.33;;;20.20;26.80;;;;;;6261383;28;20909;-66
2023/02/17 13:06:45;;;;;;;9.80;5.60;;;20.00;26.90;;;;;;6254012;28;20243;-66
2023/02/17 13:09:50;;;;;;;8.23;5.20;;;19.80;27.10;;;;;;6252714;28;20271;-66
2023/02/17 13:13:01;;;;;;;7.30;5.30;;;19.60;27.30;;;;;;6288460;28;20253;-65
2023/02/17 13:16:05;;;;;;;6.80;4.80;;;19.40;27.40;;;;;;6307154;28;20223;-65
2023/02/17 13:19:09;;;;;;;5.10;4.60;;;19.30;27.70;;;;;;6305145;28;20249;-65
2023/02/17 13:22:22;;;;;;;7.83;5.40;;;19.20;27.80;;;;;;6302361;28;20226;-65
2023/02/17 13:25:32;;;;;;;6.27;4.97;;;19.20;28.00;;;;;;6302161;28;20585;-65
2023/02/17 13:28:41;;;;;;;10.50;4.80;;;19.20;28.00;;;;;;6277817;28;20365;-65
2023/02/17 13:31:47;;;;;;;5.80;5.20;;;19.20;28.10;;;;;;6287896;28;20337;-65
2023/02/17 13:35:00;;;;;;;5.90;5.23;;;19.10;28.30;;;;;;6300106;28;20227;-65
2023/02/17 13:38:04;;;;;;;5.80;4.40;;;18.90;28.40;;;;;;6296862;28;20234;-65
2023/02/17 13:41:13;;;;;;;7.30;5.20;;;18.70;28.50;;;;;;6302081;28;20241;-65
2023/02/17 13:44:26;;;;;;;5.70;4.37;;;18.50;29.00;;;;;;6298668;28;20271;-65
2023/02/17 13:47:34;;;;;;;5.80;4.93;;;18.40;29.10;;;;;;6302619;28;20223;-64
2023/02/17 13:50:44;;;;;;;6.47;4.70;;;18.20;29.40;;;;;;6300301;28;20235;-65
2023/02/17 13:53:50;;;;;;;8.10;5.00;;;18.20;29.70;;;;;;6288609;28;20689;-65
2023/02/17 13:56:55;;;;;;;8.17;5.93;;;18.00;29.90;;;;;;6290692;28;20302;-65
2023/02/17 14:00:10;;;;;;;6.33;5.73;;;17.80;30.00;;;;;;6298118;28;20694;-64
2023/02/17 14:03:20;;;;;;;9.40;5.33;;;17.70;30.50;;;;;;6299811;28;20656;-65
2023/02/17 14:06:29;;;;;;;7.50;5.30;;;17.50;30.60;;;;;;6300916;28;20223;-65
2023/02/17 14:09:34;;;;;;;6.63;5.93;;;17.50;31.00;;;;;;6294430;28;20235;-65
2023/02/17 14:12:38;;;;;;;7.73;5.37;;;17.40;31.30;;;;;;6301655;28;20465;-64
2023/02/17 14:15:53;;;;;;;13.27;5.70;;;17.40;31.60;;;;;;6300618;28;20230;-65
2023/02/17 14:19:05;;;;;;;6.97;5.33;;;17.30;31.70;;;;;;6286986;28;20626;-65
2023/02/17 14:22:24;;;;;;;6.73;5.63;;;17.30;32.50;;;;;;6300913;28;20677;-65
2023/02/17 14:25:28;;;;;;;7.83;5.83;;;17.20;32.60;;;;;;6299374;28;20242;-65
2023/02/17 14:28:33;;;;;;;7.53;5.10;;;17.20;32.40;;;;;;6299119;28;20802;-65
2023/02/17 14:31:40;;;;;;;7.00;5.70;;;17.10;32.50;;;;;;6295531;28;20311;-65
2023/02/17 14:34:43;;;;;;;7.00;5.27;;;17.10;32.30;;;;;;6300742;28;20473;-65
2023/02/17 14:37:47;;;;;;;6.87;5.50;;;17.00;32.40;;;;;;6300312;28;20234;-69
2023/02/17 14:40:52;;;;;;;8.53;6.10;;;16.90;32.60;;;;;;6299146;28;20227;-66
2023/02/17 14:43:57;;;;;;;10.60;6.70;;;16.90;32.60;;;;;;6291341;28;21000;-64
2023/02/17 14:47:00;;;;;;;11.70;6.93;;;16.90;32.50;;;;;;6288938;28;20223;-64
2023/02/17 14:50:04;;;;;;;12.20;6.80;;;16.80;33.10;;;;;;6297390;28;20476;-65
2023/02/17 14:53:11;;;;;;;9.30;7.17;;;16.70;33.30;;;;;;6293040;28;20480;-65
2023/02/17 14:56:20;;;;;;;9.70;6.27;;;16.60;33.60;;;;;;6297544;28;20435;-65
2023/02/17 14:59:25;;;;;;;6.17;5.47;;;16.60;33.60;;;;;;6294184;28;21003;-65
2023/02/17 15:02:30;;;;;;;10.83;8.20;;;16.50;33.70;;;;;;6298343;28;20604;-65
2023/02/17 15:05:34;;;;;;;10.67;9.50;;;16.40;33.70;;;;;;6298401;28;20605;-65
2023/02/17 15:08:38;;;;;;;16.67;10.10;;;16.40;33.70;;;;;;6300607;28;20468;-65
2023/02/17 15:11:44;;;;;;;18.00;9.47;;;16.30;34.10;;;;;;6298570;28;20467;-65
2023/02/17 15:14:49;;;;;;;17.40;9.40;;;16.20;35.10;;;;;;6298430;28;20572;-64
2023/02/17 15:17:53;;;;;;;11.87;7.80;;;16.20;35.50;;;;;;6299754;28;20469;-64
2023/02/17 15:20:57;;;;;;;12.47;8.70;;;16.10;35.80;;;;;;6289682;28;20589;-65
2023/02/17 15:24:02;;;;;;;15.40;9.60;;;16.10;36.10;;;;;;6298109;28;21079;-65
2023/02/17 15:27:06;;;;;;;14.30;8.83;;;16.00;37.20;;;;;;6297560;28;20473;-65
2023/02/17 15:30:15;;;;;;;13.23;7.80;;;15.90;37.50;;;;;;6291775;28;20536;-65
2023/02/17 15:33:21;;;;;;;10.57;6.60;;;15.80;37.90;;;;;;6297813;28;20466;-65
2023/02/17 15:36:25;;;;;;;11.33;7.87;;;15.70;38.00;;;;;;6297693;28;20957;-65
2023/02/17 15:39:29;;;;;;;12.33;6.17;;;15.60;38.40;;;;;;6297651;28;21899;-65
2023/02/17 15:42:32;;;;;;;10.80;7.30;;;15.40;38.30;;;;;;6292728;28;20483;-65
2023/02/17 15:45:37;;;;;;;14.33;8.53;;;15.40;39.00;;;;;;6274499;28;20473;-65
2023/02/17 15:48:41;;;;;;;16.00;7.50;;;15.30;39.20;;;;;;6277196;28;20560;-65
2023/02/17 15:51:46;;;;;;;11.50;6.70;;;15.20;39.30;;;;;;6294438;28;20481;-65
2023/02/17 15:54:49;;;;;;;13.63;7.20;;;15.20;39.70;;;;;;6297917;28;20475;-65
2023/02/17 15:57:56;;;;;;;19.77;9.03;;;15.10;40.00;;;;;;6297904;28;20518;-65
2023/02/17 16:01:02;;;;;;;20.13;9.80;;;15.00;40.40;;;;;;6294664;28;20631;-65
2023/02/17 16:04:10;;;;;;;18.17;8.90;;;14.90;41.50;;;;;;6297994;28;20555;-64